Time;durP1;ratioP1;P1;durP2;ratioP2;P2;SDS_P1;SDS_P2;PMS_P1;PMS_P2;Temp;Humidity;BMP_temperature;BMP_pressure;BME280_temperature;BME280_humidity;BME280_pressure;Samples;Min_cycle;Max_cycle;Signal;HPM_P1;HPM_P2
2023/11/14 00:00:14;;;;;;;25.10;4.32;;;16.50;66.50;17.80;99798.00;;;;5018995;28;20200;-77
2023/11/14 00:02:42;;;;;;;13.38;3.13;;;16.50;66.60;17.80;99784.00;;;;5026395;28;20205;-77
2023/11/14 00:05:09;;;;;;;18.50;3.72;;;16.40;66.50;17.80;99799.00;;;;5008091;28;20207;-77
2023/11/14 00:07:36;;;;;;;19.45;4.80;;;16.40;66.60;17.80;99806.00;;;;5014382;28;20274;-77
2023/11/14 00:10:07;;;;;;;16.45;3.10;;;16.40;66.60;17.80;99791.00;;;;5022801;28;20569;-76
2023/11/14 00:12:34;;;;;;;22.80;4.43;;;16.40;66.60;17.80;99817.00;;;;5013371;28;20275;-77
2023/11/14 00:15:01;;;;;;;18.50;4.20;;;16.40;66.60;17.80;99808.00;;;;5018476;28;20225;-77
2023/11/14 00:17:29;;;;;;;29.80;3.88;;;16.40;66.70;17.80;99805.00;;;;5024409;28;20674;-77
2023/11/14 00:19:56;;;;;;;15.48;3.70;;;16.40;66.70;17.80;99818.00;;;;5010732;28;20193;-77
2023/11/14 00:22:23;;;;;;;24.85;3.83;;;16.40;66.60;17.80;99823.00;;;;5021403;28;20284;-76
2023/11/14 00:24:50;;;;;;;17.50;3.80;;;16.50;66.70;17.80;99825.00;;;;5010456;28;20196;-77
2023/11/14 00:27:18;;;;;;;18.85;3.28;;;16.50;66.70;17.80;99810.00;;;;5011536;28;20280;-76
2023/11/14 00:29:46;;;;;;;19.35;3.90;;;16.50;66.60;17.80;99823.00;;;;5003375;28;20228;-76
2023/11/14 00:32:13;;;;;;;16.13;3.50;;;16.50;66.60;17.80;99820.00;;;;5007896;28;20235;-77
2023/11/14 00:34:40;;;;;;;17.15;3.67;;;16.50;66.60;17.80;99825.00;;;;5010008;28;20211;-77
2023/11/14 00:37:07;;;;;;;17.98;3.50;;;16.50;66.60;17.90;99830.00;;;;5009223;28;20193;-77
2023/11/14 00:39:35;;;;;;;13.70;3.00;;;16.50;66.50;17.80;99801.00;;;;5009253;28;20368;-77
2023/11/14 00:42:03;;;;;;;15.20;3.15;;;16.50;66.50;17.90;99805.00;;;;5017544;28;20228;-77
2023/11/14 00:44:31;;;;;;;19.35;3.38;;;16.50;66.50;17.90;99806.00;;;;5017897;28;20204;-77
2023/11/14 00:46:58;;;;;;;17.48;3.42;;;16.50;66.30;17.90;99807.00;;;;5005599;28;20565;-76
2023/11/14 00:49:25;;;;;;;14.20;3.83;;;16.60;66.40;17.90;99806.00;;;;5014002;28;20193;-77
2023/11/14 00:51:53;;;;;;;18.65;3.92;;;16.60;66.30;17.90;99801.00;;;;5002822;28;20221;-76
2023/11/14 00:54:20;;;;;;;23.30;5.22;;;16.60;66.30;17.90;99817.00;;;;5002954;28;20578;-77
2023/11/14 00:56:47;;;;;;;16.95;2.53;;;16.60;66.30;17.90;99812.00;;;;5011289;28;20292;-76
2023/11/14 00:59:16;;;;;;;18.95;3.55;;;16.60;66.40;18.00;99825.00;;;;5015649;28;20200;-77
2023/11/14 01:01:45;;;;;;;14.07;3.83;;;16.60;66.20;18.00;99831.00;;;;5013904;28;20201;-77
2023/11/14 01:04:12;;;;;;;12.65;3.40;;;16.60;66.00;18.00;99832.00;;;;5019006;28;20200;-77
2023/11/14 01:06:39;;;;;;;24.40;3.47;;;16.60;66.10;18.00;99840.00;;;;5016281;28;20209;-77
2023/11/14 01:09:08;;;;;;;17.55;3.47;;;16.70;66.10;18.00;99825.00;;;;5015065;28;20200;-76
2023/11/14 01:11:36;;;;;;;24.45;5.43;;;16.70;66.00;18.00;99834.00;;;;5011578;28;20813;-77
2023/11/14 01:14:03;;;;;;;16.80;3.97;;;16.70;65.80;18.00;99843.00;;;;5019849;28;20276;-76
2023/11/14 01:16:30;;;;;;;18.10;3.70;;;16.70;65.70;17.90;99835.00;;;;5009647;28;20285;-78
2023/11/14 01:18:59;;;;;;;20.30;4.28;;;16.70;65.80;18.00;99848.00;;;;5016916;28;20216;-78
2023/11/14 01:21:26;;;;;;;22.17;3.85;;;16.70;65.80;18.00;99852.00;;;;5022100;28;20280;-77
2023/11/14 01:23:53;;;;;;;17.13;3.75;;;16.70;65.80;18.00;99842.00;;;;5016493;28;20209;-77
2023/11/14 01:26:20;;;;;;;17.42;3.35;;;16.70;65.80;18.00;99850.00;;;;5014309;28;20205;-77
2023/11/14 01:28:47;;;;;;;18.17;3.45;;;16.70;65.80;18.00;99861.00;;;;5015916;28;20288;-77
2023/11/14 01:31:21;;;;;;;15.20;3.28;;;16.70;65.80;17.90;99860.00;;;;5015531;28;20591;-77
2023/11/14 01:33:48;;;;;;;20.52;4.07;;;16.70;65.60;18.00;99858.00;;;;5010038;28;20207;-77
2023/11/14 01:36:17;;;;;;;23.85;3.80;;;16.70;65.80;18.00;99865.00;;;;5010197;28;20201;-76
2023/11/14 01:38:44;;;;;;;15.27;3.28;;;16.70;65.80;18.00;99874.00;;;;5020833;28;20201;-77
2023/11/14 01:41:11;;;;;;;22.38;3.88;;;16.70;65.80;18.00;99869.00;;;;5015666;28;20288;-77
2023/11/14 01:43:42;;;;;;;12.68;3.55;;;16.70;65.80;18.00;99864.00;;;;5009289;28;20201;-77
2023/11/14 01:46:10;;;;;;;21.23;4.18;;;16.70;66.00;18.00;99865.00;;;;5000721;28;20608;-77
2023/11/14 01:48:37;;;;;;;18.30;3.63;;;16.70;65.60;18.00;99863.00;;;;5012588;28;20203;-76
2023/11/14 01:51:05;;;;;;;19.95;3.67;;;16.70;65.60;18.00;99870.00;;;;5011450;28;20303;-77
2023/11/14 01:53:35;;;;;;;16.83;3.28;;;16.70;65.60;17.90;99874.00;;;;5006050;28;20565;-77
2023/11/14 01:56:02;;;;;;;21.45;4.55;;;16.70;65.70;17.90;99867.00;;;;5017059;28;20200;-76
2023/11/14 01:58:29;;;;;;;12.48;3.45;;;16.70;65.70;17.90;99876.00;;;;5014727;28;20201;-76
2023/11/14 02:00:57;;;;;;;23.65;4.10;;;16.70;65.70;17.90;99883.00;;;;5017783;28;20196;-77
2023/11/14 02:03:25;;;;;;;26.05;3.65;;;16.70;65.70;17.90;99879.00;;;;5014094;28;20203;-76
2023/11/14 02:05:52;;;;;;;17.08;3.45;;;16.70;65.70;17.90;99897.00;;;;5008721;28;20200;-77
2023/11/14 02:08:20;;;;;;;15.68;3.05;;;16.70;65.70;17.90;99904.00;;;;5009166;28;20199;-77
2023/11/14 02:10:49;;;;;;;15.63;3.55;;;16.70;65.70;17.90;99911.00;;;;5008752;28;20228;-78
2023/11/14 02:13:16;;;;;;;17.45;3.05;;;16.70;65.70;17.90;99889.00;;;;5018296;28;20319;-77
2023/11/14 02:15:43;;;;;;;17.20;2.70;;;16.70;65.80;17.90;99913.00;;;;5013990;28;20565;-77
2023/11/14 02:18:10;;;;;;;18.88;3.45;;;16.60;65.70;17.90;99914.00;;;;5011304;28;20296;-77
2023/11/14 02:20:37;;;;;;;24.40;4.00;;;16.60;65.80;17.90;99902.00;;;;5022023;28;20295;-77
2023/11/14 02:23:11;;;;;;;15.73;3.50;;;16.60;65.90;17.80;99899.00;;;;5017827;28;20196;-77
2023/11/14 02:25:40;;;;;;;22.27;3.92;;;16.60;65.90;17.90;99891.00;;;;5009178;28;20192;-78
2023/11/14 02:28:08;;;;;;;20.63;3.88;;;16.60;65.90;17.90;99910.00;;;;5017734;28;20259;-77
2023/11/14 02:30:36;;;;;;;14.68;3.20;;;16.60;66.00;17.90;99917.00;;;;5016745;28;20641;-77
2023/11/14 02:33:06;;;;;;;16.98;3.80;;;16.60;66.00;17.80;99907.00;;;;5007500;28;20216;-77
2023/11/14 02:35:33;;;;;;;22.52;3.55;;;16.60;66.00;17.90;99903.00;;;;5010526;28;20221;-77
2023/11/14 02:38:00;;;;;;;24.75;3.92;;;16.50;65.90;17.90;99911.00;;;;5006733;28;20658;-77
2023/11/14 02:40:28;;;;;;;17.92;3.05;;;16.50;65.90;17.80;99906.00;;;;5006570;28;20189;-77
2023/11/14 02:42:58;;;;;;;14.75;3.15;;;16.60;66.70;17.80;99905.00;;;;5009997;28;20753;-77
2023/11/14 02:45:26;;;;;;;10.10;2.55;;;16.50;66.00;17.80;99925.00;;;;5008501;28;20193;-77
2023/11/14 02:47:54;;;;;;;16.52;3.17;;;16.50;66.00;17.80;99918.00;;;;5008663;28;20193;-77
2023/11/14 02:50:50;;;;;;;17.40;3.67;;;16.50;66.00;17.70;99917.00;;;;5004855;28;20655;-77
2023/11/14 02:53:19;;;;;;;13.05;3.47;;;16.50;66.10;17.80;99916.00;;;;5006026;28;20252;-77
2023/11/14 02:55:46;;;;;;;14.52;3.28;;;16.50;66.10;17.80;99923.00;;;;5014358;28;20291;-77
2023/11/14 02:58:15;;;;;;;21.45;3.28;;;16.50;66.10;17.80;99920.00;;;;5008105;28;20227;-77
2023/11/14 03:00:48;;;;;;;15.02;3.45;;;16.50;66.10;17.70;99929.00;;;;5000507;28;20197;-78
2023/11/14 03:03:15;;;;;;;22.63;3.90;;;16.50;66.90;17.80;99945.00;;;;5011621;28;20236;-76
2023/11/14 03:05:44;;;;;;;15.13;3.90;;;16.50;66.20;17.70;99941.00;;;;5021816;28;20192;-77
2023/11/14 03:08:12;;;;;;;18.17;3.90;;;16.50;66.30;17.70;99938.00;;;;5007705;28;20200;-78
2023/11/14 03:10:40;;;;;;;20.27;3.70;;;16.40;66.40;17.70;99942.00;;;;5005076;28;20286;-76
2023/11/14 03:13:08;;;;;;;24.67;3.65;;;16.40;66.40;17.70;99953.00;;;;5010237;28;20224;-76
2023/11/14 03:15:37;;;;;;;14.50;3.35;;;16.40;66.50;17.70;99952.00;;;;5006109;28;20687;-77
2023/11/14 03:18:05;;;;;;;19.02;3.78;;;16.40;66.40;17.70;99955.00;;;;5023885;28;20231;-78
2023/11/14 03:20:32;;;;;;;18.92;3.30;;;16.40;66.50;17.70;99952.00;;;;5005997;28;20922;-77
2023/11/14 03:22:59;;;;;;;23.73;4.22;;;16.40;66.60;17.70;99960.00;;;;5014737;28;20220;-76
2023/11/14 03:25:26;;;;;;;18.38;2.67;;;16.40;66.60;17.70;99955.00;;;;5008439;28;20197;-77
2023/11/14 03:27:53;;;;;;;15.57;2.75;;;16.40;66.50;17.70;99954.00;;;;5007864;28;20213;-77
2023/11/14 03:30:22;;;;;;;18.45;4.05;;;16.40;66.60;17.70;99958.00;;;;5008222;28;20231;-78
2023/11/14 03:32:50;;;;;;;16.67;3.92;;;16.40;66.70;17.70;99950.00;;;;5012844;28;20312;-77
2023/11/14 03:35:17;;;;;;;17.20;2.80;;;16.40;66.70;17.70;99948.00;;;;5008339;28;20552;-77
2023/11/14 03:37:44;;;;;;;14.80;2.95;;;16.40;66.70;17.60;99941.00;;;;5020199;28;20202;-77
2023/11/14 03:40:13;;;;;;;15.27;2.83;;;16.40;66.90;17.60;99957.00;;;;5011083;28;20201;-78
2023/11/14 03:42:40;;;;;;;18.35;3.17;;;16.30;66.60;17.60;99967.00;;;;5007281;28;20571;-76
2023/11/14 03:45:08;;;;;;;16.33;3.92;;;16.30;66.60;17.60;99957.00;;;;5013981;28;20196;-76
2023/11/14 03:47:35;;;;;;;14.93;3.67;;;16.30;66.70;17.60;99970.00;;;;5023488;28;20212;-78
2023/11/14 03:50:07;;;;;;;13.45;3.00;;;16.30;66.60;17.60;99962.00;;;;5006728;28;20577;-77
2023/11/14 03:52:34;;;;;;;15.70;3.50;;;16.30;66.60;17.60;99968.00;;;;5005088;28;20220;-78
2023/11/14 03:55:02;;;;;;;11.23;2.67;;;16.30;66.70;17.60;99964.00;;;;5008344;28;20685;-77
2023/11/14 03:57:29;;;;;;;14.13;3.28;;;16.30;66.60;17.60;99969.00;;;;5007638;28;20200;-78
2023/11/14 03:59:56;;;;;;;17.10;2.70;;;16.30;66.60;17.60;99976.00;;;;5011885;28;22188;-78
2023/11/14 04:02:23;;;;;;;12.18;2.78;;;16.30;66.60;17.60;99966.00;;;;5008406;28;20205;-78
2023/11/14 04:04:50;;;;;;;14.57;3.20;;;16.30;66.60;17.60;99979.00;;;;5021895;28;20196;-78
2023/11/14 04:07:19;;;;;;;12.57;2.95;;;16.30;66.70;17.60;99988.00;;;;5019133;28;20627;-78
2023/11/14 04:09:46;;;;;;;13.23;3.10;;;16.30;66.60;17.60;99987.00;;;;5017462;28;20215;-77
2023/11/14 04:12:13;;;;;;;20.08;2.95;;;16.30;66.60;17.60;99973.00;;;;5010253;28;20225;-79
2023/11/14 04:14:40;;;;;;;11.93;2.78;;;16.30;66.60;17.60;99980.00;;;;5012176;28;20240;-79
2023/11/14 04:17:07;;;;;;;14.23;3.72;;;16.30;66.60;17.60;99977.00;;;;5016411;28;20192;-79
2023/11/14 04:19:35;;;;;;;12.40;3.22;;;16.30;66.60;17.60;99971.00;;;;5012580;28;20289;-79
2023/11/14 04:22:03;;;;;;;19.42;2.90;;;16.30;66.60;17.70;99969.00;;;;5014091;28;20203;-79
2023/11/14 04:24:32;;;;;;;15.65;3.78;;;16.30;66.50;17.60;99983.00;;;;5009271;28;20204;-80
2023/11/14 04:27:00;;;;;;;15.88;3.47;;;16.30;66.40;17.70;99984.00;;;;5018851;28;20193;-79
2023/11/14 04:29:27;;;;;;;20.40;4.03;;;16.30;66.40;17.70;99982.00;;;;5009435;28;20618;-79
2023/11/14 04:31:54;;;;;;;16.40;2.97;;;16.30;66.40;17.70;99965.00;;;;5011239;28;20211;-78
2023/11/14 04:34:21;;;;;;;15.35;2.67;;;16.30;66.40;17.70;99975.00;;;;5015461;28;20225;-78
2023/11/14 04:36:48;;;;;;;16.20;2.70;;;16.30;66.30;17.70;99974.00;;;;5010059;28;20200;-79
2023/11/14 04:39:15;;;;;;;15.43;2.53;;;16.30;66.30;17.70;99983.00;;;;5018417;28;20189;-79
2023/11/14 04:41:44;;;;;;;16.23;3.17;;;16.30;66.30;17.60;99989.00;;;;5009354;28;20667;-79
2023/11/14 04:44:11;;;;;;;31.60;3.13;;;16.30;66.90;17.70;99979.00;;;;5009827;28;20216;-78
2023/11/14 04:46:43;;;;;;;15.10;3.30;;;16.30;66.30;17.60;99983.00;;;;5010523;28;20678;-78
2023/11/14 04:49:10;;;;;;;14.23;3.63;;;16.30;66.30;17.70;99972.00;;;;5017160;28;21108;-78
2023/11/14 04:51:37;;;;;;;11.50;2.72;;;16.30;66.30;17.70;99983.00;;;;5008751;28;20197;-78
2023/11/14 04:54:05;;;;;;;13.07;2.65;;;16.30;66.20;17.70;99972.00;;;;5006405;28;20220;-78
2023/11/14 04:56:32;;;;;;;17.63;2.90;;;16.30;66.90;17.70;99976.00;;;;5016081;28;20216;-77
2023/11/14 04:59:00;;;;;;;43.13;2.67;;;16.30;66.10;17.60;99976.00;;;;5010567;28;20197;-78
2023/11/14 05:01:27;;;;;;;14.15;2.70;;;16.30;66.00;17.70;99976.00;;;;5007503;28;20193;-78
2023/11/14 05:03:54;;;;;;;24.20;3.67;;;16.30;66.70;17.70;99972.00;;;;5012628;28;20200;-78
2023/11/14 05:06:21;;;;;;;15.95;3.25;;;16.30;66.00;17.60;99963.00;;;;5010002;28;20197;-78
2023/11/14 05:08:48;;;;;;;13.48;2.70;;;16.30;66.00;17.60;99981.00;;;;5010475;28;20659;-79
2023/11/14 05:11:15;;;;;;;16.42;3.90;;;16.30;66.00;17.60;99995.00;;;;5016353;28;20224;-78
2023/11/14 05:13:42;;;;;;;18.33;3.55;;;16.30;66.00;17.60;99994.00;;;;5007648;28;20221;-78
2023/11/14 05:16:11;;;;;;;13.45;2.58;;;16.30;66.10;17.60;100001.00;;;;5018025;28;20192;-78
2023/11/14 05:18:38;;;;;;;17.13;3.70;;;16.20;66.00;17.60;100021.00;;;;5017243;28;20197;-78
2023/11/14 05:21:05;;;;;;;21.23;3.28;;;16.30;66.20;17.60;100010.00;;;;5009019;28;20205;-79
2023/11/14 05:23:33;;;;;;;15.63;3.28;;;16.30;66.20;17.60;100013.00;;;;5011405;28;20196;-78
2023/11/14 05:26:00;;;;;;;21.35;2.75;;;16.30;66.20;17.60;100006.00;;;;5015708;28;20193;-77
2023/11/14 05:28:27;;;;;;;14.18;3.03;;;16.30;66.20;17.60;99999.00;;;;5010281;28;20209;-78
2023/11/14 05:30:54;;;;;;;14.15;3.00;;;16.30;66.20;17.60;99992.00;;;;5008958;28;20224;-78
2023/11/14 05:33:23;;;;;;;15.38;3.83;;;16.30;66.10;17.60;99990.00;;;;5014066;28;20231;-78
2023/11/14 05:35:50;;;;;;;16.65;3.20;;;16.30;66.30;17.60;99989.00;;;;5012568;28;20627;-78
2023/11/14 05:38:18;;;;;;;12.95;3.33;;;16.30;66.30;17.60;100005.00;;;;5013911;28;20201;-78
2023/11/14 05:40:45;;;;;;;13.52;2.50;;;16.30;66.30;17.60;99989.00;;;;5009753;28;20702;-78
2023/11/14 05:43:12;;;;;;;23.42;3.65;;;16.30;66.30;17.70;99993.00;;;;5009378;28;20233;-79
2023/11/14 05:45:39;;;;;;;18.33;2.85;;;16.30;66.30;17.70;99983.00;;;;5018872;28;20206;-78
2023/11/14 05:48:06;;;;;;;18.95;3.58;;;16.30;66.30;17.70;99983.00;;;;5012846;28;20275;-78
2023/11/14 05:50:36;;;;;;;15.43;3.42;;;16.30;66.30;17.70;99999.00;;;;5011776;28;20553;-79
2023/11/14 05:53:03;;;;;;;18.52;4.10;;;16.30;66.30;17.70;99996.00;;;;5008741;28;20224;-79
2023/11/14 05:55:31;;;;;;;15.13;3.10;;;16.30;66.30;17.70;100008.00;;;;5008027;28;21000;-79
2023/11/14 05:57:58;;;;;;;11.23;2.45;;;16.30;67.00;17.70;100003.00;;;;5008363;28;20197;-79
2023/11/14 06:00:25;;;;;;;24.38;3.67;;;16.30;66.30;17.70;100002.00;;;;5012145;28;20720;-78
2023/11/14 06:02:52;;;;;;;14.55;2.90;;;16.30;66.30;17.70;99999.00;;;;5006277;28;20225;-78
2023/11/14 06:05:19;;;;;;;18.50;3.72;;;16.40;66.20;17.70;100011.00;;;;5001849;28;20198;-77
2023/11/14 06:07:48;;;;;;;15.00;2.95;;;16.30;66.20;17.70;100017.00;;;;5006198;28;20213;-78
2023/11/14 06:10:15;;;;;;;15.15;2.75;;;16.30;66.20;17.60;100017.00;;;;5006322;28;20600;-78
2023/11/14 06:12:43;;;;;;;18.75;3.35;;;16.30;66.20;17.60;100029.00;;;;5014396;28;20190;-77
2023/11/14 06:15:11;;;;;;;21.38;3.38;;;16.30;66.20;17.60;100021.00;;;;5014755;28;20197;-77
2023/11/14 06:17:38;;;;;;;18.25;2.72;;;16.30;66.20;17.60;100025.00;;;;5006577;28;20196;-78
2023/11/14 06:20:07;;;;;;;20.10;4.15;;;16.30;66.20;17.60;100045.00;;;;5008801;28;20197;-77
2023/11/14 06:22:34;;;;;;;22.27;3.80;;;16.30;66.30;17.60;100039.00;;;;5006491;28;20193;-77
2023/11/14 06:25:03;;;;;;;16.33;3.13;;;16.30;66.30;17.60;100069.00;;;;5007087;28;20197;-78
2023/11/14 06:27:31;;;;;;;17.02;3.17;;;16.30;66.30;17.70;100055.00;;;;5002418;28;20193;-78
2023/11/14 06:29:58;;;;;;;14.00;3.08;;;16.30;66.30;17.70;100057.00;;;;5006290;28;20221;-78
2023/11/14 06:32:25;;;;;;;15.52;3.05;;;16.30;66.30;17.70;100055.00;;;;5005750;28;21010;-78
2023/11/14 06:34:52;;;;;;;13.15;2.85;;;16.30;66.30;17.70;100056.00;;;;5008212;28;20347;-78
2023/11/14 06:37:20;;;;;;;12.98;3.08;;;16.30;66.30;17.70;100060.00;;;;5000016;28;20193;-78
2023/11/14 06:39:49;;;;;;;24.80;3.60;;;16.30;66.30;17.60;100054.00;;;;5003280;28;20201;-78
2023/11/14 06:42:18;;;;;;;19.65;3.72;;;16.40;66.30;17.70;100056.00;;;;5007794;28;20576;-78
2023/11/14 06:44:45;;;;;;;16.13;3.03;;;16.30;66.30;17.70;100053.00;;;;5007652;28;20208;-78
2023/11/14 06:47:15;;;;;;;19.02;2.80;;;16.30;66.30;17.70;100052.00;;;;5004033;28;20200;-79
2023/11/14 06:49:42;;;;;;;10.70;2.38;;;16.40;66.40;17.70;100051.00;;;;4998847;28;20635;-78
2023/11/14 06:52:10;;;;;;;13.23;2.95;;;16.30;66.30;17.70;100065.00;;;;5005564;28;20201;-79
2023/11/14 06:54:37;;;;;;;12.00;2.55;;;16.40;66.40;17.70;100060.00;;;;5005093;28;20312;-78
2023/11/14 06:57:05;;;;;;;20.38;4.45;;;16.40;66.40;17.70;100061.00;;;;5008783;28;20197;-79
2023/11/14 06:59:34;;;;;;;19.02;2.85;;;16.40;66.50;17.70;100067.00;;;;5005314;28;20197;-79
2023/11/14 07:02:05;;;;;;;23.77;3.03;;;16.40;66.60;17.70;100060.00;;;;5006992;28;20581;-79
2023/11/14 07:04:32;;;;;;;17.60;3.38;;;16.40;66.60;17.70;100059.00;;;;5007183;28;20189;-79
2023/11/14 07:07:00;;;;;;;13.55;3.13;;;16.30;66.60;17.70;100064.00;;;;5008507;28;20189;-78
2023/11/14 07:09:27;;;;;;;14.95;3.22;;;16.30;66.60;17.70;100058.00;;;;5004274;28;20748;-78
2023/11/14 07:11:55;;;;;;;14.10;2.40;;;16.30;66.60;17.70;100075.00;;;;5007693;28;20225;-78
2023/11/14 07:14:24;;;;;;;13.60;3.10;;;16.30;66.60;17.70;100070.00;;;;5007822;28;20231;-78
2023/11/14 07:16:53;;;;;;;20.83;3.65;;;16.30;66.70;17.60;100086.00;;;;5006028;28;20251;-78
2023/11/14 07:19:21;;;;;;;14.88;3.15;;;16.30;66.70;17.60;100101.00;;;;5005474;28;20288;-78
2023/11/14 07:21:48;;;;;;;15.45;3.40;;;16.20;67.00;17.60;100085.00;;;;5004489;28;20189;-78
2023/11/14 07:24:16;;;;;;;17.02;3.25;;;16.20;66.70;17.60;100074.00;;;;5007861;28;20624;-78
2023/11/14 07:26:45;;;;;;;17.48;3.13;;;16.20;66.70;17.50;100079.00;;;;5006392;28;20662;-78
2023/11/14 07:29:12;;;;;;;18.92;4.05;;;16.20;66.70;17.50;100067.00;;;;5006269;28;20216;-78
2023/11/14 07:31:39;;;;;;;16.40;2.95;;;16.10;66.70;17.50;100078.00;;;;5006584;28;20540;-78
2023/11/14 07:34:08;;;;;;;12.55;2.85;;;16.10;66.80;17.50;100085.00;;;;5006221;28;20216;-78
2023/11/14 07:36:35;;;;;;;17.25;3.15;;;16.10;66.80;17.50;100093.00;;;;5007916;28;20204;-78
2023/11/14 07:39:03;;;;;;;19.10;3.55;;;16.10;66.90;17.50;100089.00;;;;5010243;28;20220;-78
2023/11/14 07:41:30;;;;;;;18.08;3.63;;;16.10;66.90;17.50;100090.00;;;;5012052;28;20570;-78
2023/11/14 07:43:57;;;;;;;16.50;4.05;;;16.10;67.10;17.40;100078.00;;;;5006895;28;20197;-78
2023/11/14 07:46:24;;;;;;;19.52;3.47;;;16.00;67.00;17.40;100076.00;;;;5005526;28;20220;-78
2023/11/14 07:48:52;;;;;;;16.92;2.28;;;16.00;67.10;17.50;100076.00;;;;5007808;28;20581;-77
2023/11/14 07:51:20;;;;;;;16.13;2.40;;;16.00;67.20;17.40;100079.00;;;;5009995;28;20204;-77
2023/11/14 07:53:47;;;;;;;17.45;4.07;;;16.10;67.40;17.40;100081.00;;;;5010418;28;20844;-77
2023/11/14 07:56:14;;;;;;;14.82;2.42;;;16.00;67.40;17.50;100088.00;;;;5008466;28;20201;-76
2023/11/14 07:58:42;;;;;;;19.58;3.90;;;16.00;67.40;17.50;100077.00;;;;5009971;28;20204;-77
2023/11/14 08:01:09;;;;;;;14.73;3.25;;;16.10;67.50;17.50;100086.00;;;;5007875;28;20208;-78
2023/11/14 08:03:36;;;;;;;14.52;3.00;;;16.00;67.50;17.50;100092.00;;;;4999273;28;20213;-78
2023/11/14 08:06:04;;;;;;;16.73;2.95;;;16.10;67.70;17.50;100080.00;;;;5012010;28;20561;-77
2023/11/14 08:08:33;;;;;;;17.55;3.30;;;16.10;67.80;17.50;100067.00;;;;5010859;28;20267;-77
2023/11/14 08:11:02;;;;;;;14.95;2.85;;;16.10;67.80;17.50;100066.00;;;;5012388;28;20244;-77
2023/11/14 08:13:29;;;;;;;20.52;3.30;;;16.10;67.80;17.60;100076.00;;;;5009315;28;20701;-77
2023/11/14 08:15:56;;;;;;;16.58;3.15;;;16.10;67.80;17.60;100079.00;;;;5009052;28;20557;-78
2023/11/14 08:18:23;;;;;;;14.40;2.80;;;16.10;67.80;17.60;100081.00;;;;5005077;28;20201;-78
2023/11/14 08:20:51;;;;;;;16.95;2.60;;;16.20;68.00;17.60;100085.00;;;;5008517;28;20679;-78
2023/11/14 08:23:18;;;;;;;18.67;3.80;;;16.10;68.00;17.60;100058.00;;;;5011511;28;20683;-78
2023/11/14 08:25:46;;;;;;;15.48;3.00;;;16.10;68.10;17.60;100069.00;;;;5009446;28;20231;-78
2023/11/14 08:28:14;;;;;;;15.98;3.63;;;16.20;68.20;17.70;100078.00;;;;5009750;28;20219;-77
2023/11/14 08:30:41;;;;;;;15.02;2.92;;;16.20;68.30;17.70;100090.00;;;;5009278;28;20221;-78
2023/11/14 08:33:09;;;;;;;17.05;3.53;;;16.20;68.30;17.70;100087.00;;;;5011238;28;20647;-77
2023/11/14 08:35:37;;;;;;;17.90;2.92;;;16.20;68.40;17.70;100074.00;;;;5010459;28;20248;-77
2023/11/14 08:38:04;;;;;;;25.60;3.88;;;16.20;68.40;17.70;100067.00;;;;5009258;28;20701;-78
2023/11/14 08:40:31;;;;;;;17.13;3.85;;;16.20;68.50;17.70;100070.00;;;;5022523;28;20204;-78
2023/11/14 08:43:00;;;;;;;14.35;3.30;;;16.20;68.60;17.80;100076.00;;;;5030314;28;20271;-77
2023/11/14 08:45:29;;;;;;;12.73;2.90;;;16.30;68.70;17.80;100068.00;;;;5007887;28;20207;-78
2023/11/14 08:47:56;;;;;;;11.73;3.10;;;16.30;68.70;17.80;100067.00;;;;5008295;28;20263;-77
2023/11/14 08:50:23;;;;;;;14.60;3.33;;;16.30;68.70;17.80;100078.00;;;;5010140;28;20239;-77
2023/11/14 08:52:50;;;;;;;17.88;2.92;;;16.30;68.70;17.90;100069.00;;;;5011104;28;20607;-77
2023/11/14 08:55:19;;;;;;;18.73;2.95;;;16.30;68.70;17.90;100070.00;;;;5009773;28;20271;-77
2023/11/14 08:57:46;;;;;;;15.93;3.40;;;16.40;68.70;17.90;100078.00;;;;5003481;28;20236;-78
2023/11/14 09:00:18;;;;;;;19.40;4.03;;;16.30;68.70;17.90;100083.00;;;;5002437;28;20203;-77
2023/11/14 09:02:45;;;;;;;19.40;3.85;;;16.40;68.70;17.90;100088.00;;;;5004086;28;20201;-77
2023/11/14 09:05:12;;;;;;;14.05;2.90;;;16.40;68.70;17.90;100083.00;;;;5008391;28;20551;-78
2023/11/14 09:07:39;;;;;;;16.00;3.88;;;16.40;68.70;17.90;100085.00;;;;5009080;28;20205;-77
2023/11/14 09:10:08;;;;;;;14.98;3.08;;;16.40;68.70;17.90;100092.00;;;;5008401;28;20729;-78
2023/11/14 09:12:35;;;;;;;14.85;2.58;;;16.40;68.80;18.00;100096.00;;;;5008594;28;20200;-77
2023/11/14 09:15:05;;;;;;;16.40;3.50;;;16.40;68.80;18.00;100096.00;;;;5015239;28;20231;-78
2023/11/14 09:17:33;;;;;;;16.48;2.95;;;16.40;68.80;18.00;100093.00;;;;5007096;28;20204;-77
2023/11/14 09:20:00;;;;;;;24.13;4.05;;;16.50;68.80;18.00;100091.00;;;;5006961;28;20200;-77
2023/11/14 09:22:30;;;;;;;13.25;3.30;;;16.50;68.80;18.10;100094.00;;;;5009387;28;20673;-78
2023/11/14 09:24:57;;;;;;;20.13;3.38;;;16.50;68.80;18.10;100097.00;;;;5008580;28;20209;-77
2023/11/14 09:27:24;;;;;;;13.05;3.30;;;16.50;68.90;18.10;100081.00;;;;5008775;28;20224;-77
2023/11/14 09:29:51;;;;;;;19.63;2.95;;;16.60;68.80;18.10;100091.00;;;;5008111;28;20646;-77
2023/11/14 09:32:19;;;;;;;24.45;4.18;;;16.60;68.80;18.20;100096.00;;;;5008363;28;20211;-77
2023/11/14 09:34:48;;;;;;;19.08;3.67;;;16.60;68.70;18.20;100102.00;;;;5005767;28;20748;-77
2023/11/14 09:37:15;;;;;;;11.95;2.92;;;16.60;68.80;18.20;100091.00;;;;5005177;28;20207;-77
2023/11/14 09:39:43;;;;;;;13.02;2.80;;;16.70;68.70;18.20;100104.00;;;;5008584;28;20205;-77
2023/11/14 09:42:10;;;;;;;15.23;3.05;;;16.70;68.70;18.20;100107.00;;;;5009543;28;20561;-77
2023/11/14 09:44:38;;;;;;;20.20;3.00;;;16.70;68.70;18.30;100110.00;;;;5008077;28;20621;-78
2023/11/14 09:47:09;;;;;;;13.95;2.50;;;16.80;68.70;18.30;100106.00;;;;5009698;28;20686;-77
2023/11/14 09:49:38;;;;;;;18.38;3.80;;;16.70;68.60;18.30;100113.00;;;;5003649;28;20197;-77
2023/11/14 09:52:08;;;;;;;18.77;3.05;;;16.80;68.70;18.30;100108.00;;;;5008877;28;20215;-77
2023/11/14 09:54:35;;;;;;;13.70;3.58;;;16.80;68.70;18.40;100111.00;;;;5004712;28;20229;-78
2023/11/14 09:57:04;;;;;;;26.73;3.47;;;16.90;68.90;18.50;100118.00;;;;5003575;28;20205;-78
2023/11/14 09:59:34;;;;;;;18.05;3.28;;;16.90;69.00;18.60;100119.00;;;;5007730;28;20200;-78
2023/11/14 10:02:01;;;;;;;17.77;3.47;;;17.00;69.10;18.60;100116.00;;;;5008822;28;20197;-79
2023/11/14 10:04:29;;;;;;;19.70;3.50;;;17.10;69.00;18.70;100129.00;;;;5004387;28;20209;-78
2023/11/14 10:06:57;;;;;;;14.90;3.88;;;17.10;68.90;18.80;100121.00;;;;5008469;28;20263;-78
2023/11/14 10:09:26;;;;;;;19.95;3.80;;;17.20;68.70;18.80;100128.00;;;;5006563;28;20189;-78
2023/11/14 10:11:54;;;;;;;13.05;2.67;;;17.20;68.60;18.90;100131.00;;;;5007104;28;20697;-79
2023/11/14 10:14:21;;;;;;;13.50;2.92;;;17.30;68.50;18.90;100125.00;;;;5004831;28;20323;-79
2023/11/14 10:16:58;;;;;;;18.98;3.65;;;17.30;68.30;18.80;100129.00;;;;4999748;28;20296;-79
2023/11/14 10:19:25;;;;;;;15.70;2.92;;;17.40;68.20;19.00;100128.00;;;;5007999;28;20224;-78
2023/11/14 10:21:52;;;;;;;14.55;3.05;;;17.40;68.20;19.00;100118.00;;;;5010525;28;20192;-78
2023/11/14 10:24:19;;;;;;;15.25;3.35;;;17.50;68.30;19.00;100128.00;;;;5006854;28;20197;-78
2023/11/14 10:26:52;;;;;;;14.60;2.63;;;17.50;68.30;19.00;100129.00;;;;5008399;28;20205;-78
2023/11/14 10:29:21;;;;;;;14.07;3.22;;;17.50;68.10;19.10;100123.00;;;;5007169;28;20208;-78
2023/11/14 10:31:50;;;;;;;15.07;2.85;;;17.60;68.00;19.10;100129.00;;;;5006728;28;20569;-78
2023/11/14 10:34:29;;;;;;;21.00;3.00;;;17.60;67.90;19.00;100117.00;;;;5007935;28;20736;-78
2023/11/14 10:36:57;;;;;;;18.88;3.30;;;17.60;67.60;19.20;100124.00;;;;5002276;28;20201;-78
2023/11/14 10:39:26;;;;;;;17.38;2.92;;;17.60;67.70;19.20;100118.00;;;;5009530;28;20203;-78
2023/11/14 10:41:57;;;;;;;17.75;2.97;;;17.70;67.70;19.20;100115.00;;;;5006533;28;20197;-78
2023/11/14 10:44:24;;;;;;;17.80;2.80;;;17.70;67.50;19.20;100115.00;;;;5006358;28;20588;-78